Time;durP1;ratioP1;P1;durP2;ratioP2;P2;SDS_P1;SDS_P2;PMS_P1;PMS_P2;Temp;Humidity;BMP_temperature;BMP_pressure;BME280_temperature;BME280_humidity;BME280_pressure;Samples;Min_cycle;Max_cycle;Signal;HPM_P1;HPM_P2
2022/10/31 00:00:27;;;;;;;3.47;1.25;;;28.70;25.30;;;;;;5043036;28;20078;-62
2022/10/31 00:02:53;;;;;;;4.85;1.80;;;28.80;21.30;;;;;;5040968;28;20079;-62
2022/10/31 00:05:20;;;;;;;3.05;1.10;;;28.70;27.80;;;;;;5039369;28;20076;-60
2022/10/31 00:07:46;;;;;;;4.03;1.38;;;28.70;21.10;;;;;;5038390;28;20076;-60
2022/10/31 00:10:12;;;;;;;2.10;1.20;;;28.30;39.40;;;;;;5041439;28;20051;-62
2022/10/31 00:12:39;;;;;;;5.47;1.48;;;28.80;28.40;;;;;;5038662;28;20139;-61
2022/10/31 00:15:05;;;;;;;6.78;1.25;;;28.90;34.20;;;;;;5047240;28;20107;-61
2022/10/31 00:17:36;;;;;;;9.52;1.50;;;28.90;22.90;;;;;;5047441;28;20067;-63
2022/10/31 00:20:03;;;;;;;5.05;1.10;;;29.50;46.70;;;;;;5039697;28;20080;-63
2022/10/31 00:22:29;;;;;;;1.90;1.17;;;27.90;34.40;;;;;;5040173;28;20073;-56
2022/10/31 00:24:55;;;;;;;4.13;1.30;;;28.00;23.00;;;;;;5044814;28;20093;-55
2022/10/31 00:27:22;;;;;;;2.58;0.93;;;28.60;39.40;;;;;;5030379;28;20483;-56
2022/10/31 00:29:48;;;;;;;3.55;1.05;;;27.60;61.50;;;;;;5030687;28;20554;-55
2022/10/31 00:32:14;;;;;;;4.32;1.10;;;28.20;36.10;;;;;;5049688;28;20037;-55
2022/10/31 00:34:41;;;;;;;8.60;2.80;;;27.60;24.90;;;;;;5033258;28;20072;-56
2022/10/31 00:37:07;;;;;;;6.93;2.97;;;27.60;26.10;;;;;;5043352;28;20080;-57
2022/10/31 00:39:33;;;;;;;11.05;3.92;;;27.20;26.50;;;;;;5039168;28;20157;-56
2022/10/31 00:42:00;;;;;;;8.48;4.93;;;27.00;26.60;;;;;;5038558;28;20088;-57
2022/10/31 00:44:26;;;;;;;11.50;6.07;;;26.80;27.10;;;;;;5045125;28;20153;-60
2022/10/31 00:46:52;;;;;;;22.33;15.27;;;26.60;27.20;;;;;;5047256;28;20081;-58
2022/10/31 00:49:19;;;;;;;36.10;22.73;;;26.30;27.80;;;;;;5029995;28;20559;-55
2022/10/31 00:51:45;;;;;;;28.90;19.15;;;26.30;27.90;;;;;;5050338;28;20154;-54
2022/10/31 00:54:11;;;;;;;27.83;17.73;;;26.10;27.90;;;;;;5039271;28;20076;-54
2022/10/31 00:56:38;;;;;;;28.23;14.80;;;26.00;28.20;;;;;;5031991;28;20149;-59
2022/10/31 00:59:04;;;;;;;24.30;11.73;;;25.80;28.80;;;;;;5033562;28;20094;-55
2022/10/31 01:01:30;;;;;;;16.38;9.70;;;25.60;29.20;;;;;;5043674;28;20078;-60
2022/10/31 01:03:57;;;;;;;17.60;9.25;;;25.50;29.40;;;;;;5034988;28;20100;-58
2022/10/31 01:06:23;;;;;;;23.80;10.38;;;25.30;29.90;;;;;;5049033;28;20086;-57
2022/10/31 01:08:50;;;;;;;17.75;8.77;;;25.20;30.00;;;;;;5029473;28;20090;-58
2022/10/31 01:11:19;;;;;;;15.05;8.02;;;24.90;30.20;;;;;;5048733;28;20093;-56
2022/10/31 01:13:47;;;;;;;12.90;6.70;;;24.70;30.00;;;;;;5034122;28;20074;-61
2022/10/31 01:16:16;;;;;;;20.65;5.95;;;24.60;30.90;;;;;;5036281;28;20106;-58
2022/10/31 01:18:43;;;;;;;20.48;5.57;;;24.60;30.80;;;;;;5041226;28;20553;-59
2022/10/31 01:21:19;;;;;;;15.00;4.75;;;24.30;31.10;;;;;;5042155;28;20085;-59
2022/10/31 01:23:46;;;;;;;20.05;4.30;;;24.30;31.20;;;;;;5036873;28;20081;-61
2022/10/31 01:26:21;;;;;;;11.45;3.88;;;24.30;31.70;;;;;;5047039;28;20076;-56
2022/10/31 01:28:53;;;;;;;10.57;3.40;;;24.10;32.00;;;;;;5031619;28;20092;-55
2022/10/31 01:31:21;;;;;;;14.25;3.10;;;23.80;31.90;;;;;;5049508;28;20097;-56
2022/10/31 01:33:48;;;;;;;25.10;7.72;;;23.70;31.60;;;;;;5030295;28;20144;-56
2022/10/31 01:36:22;;;;;;;25.92;8.23;;;23.70;32.00;;;;;;5030661;28;20562;-56
2022/10/31 01:38:50;;;;;;;24.00;7.43;;;23.60;32.70;;;;;;5044592;28;20122;-60
2022/10/31 01:41:20;;;;;;;16.48;5.93;;;23.40;33.00;;;;;;5048194;28;20083;-60
2022/10/31 01:43:53;;;;;;;21.63;5.40;;;23.30;33.20;;;;;;5039687;28;20097;-61
2022/10/31 01:46:25;;;;;;;17.70;4.55;;;23.20;33.50;;;;;;5035996;28;20077;-60
2022/10/31 01:48:54;;;;;;;16.15;3.90;;;23.10;34.10;;;;;;5043665;28;20113;-58
2022/10/31 01:51:26;;;;;;;16.63;4.15;;;23.00;33.90;;;;;;5031578;28;20125;-55
2022/10/31 01:53:57;;;;;;;22.75;4.70;;;22.90;33.10;;;;;;5050189;28;20485;-56
2022/10/31 01:56:23;;;;;;;16.70;4.68;;;22.80;33.30;;;;;;5029783;28;20114;-56
2022/10/31 01:58:51;;;;;;;20.00;4.82;;;22.80;33.40;;;;;;5041995;28;20081;-58
2022/10/31 02:01:18;;;;;;;20.02;4.38;;;22.60;34.00;;;;;;5041667;28;20489;-56
2022/10/31 02:03:47;;;;;;;21.23;5.20;;;22.60;34.00;;;;;;5042248;28;20073;-58
2022/10/31 02:06:51;;;;;;;21.90;4.78;;;22.50;34.30;;;;;;5041694;28;20089;-57
2022/10/31 02:09:23;;;;;;;11.60;4.18;;;22.50;34.60;;;;;;5031123;28;20078;-57
2022/10/31 02:11:52;;;;;;;22.50;5.63;;;22.50;34.70;;;;;;5039755;28;20098;-56
2022/10/31 02:14:21;;;;;;;22.15;5.70;;;22.40;35.50;;;;;;5042465;28;20121;-56
2022/10/31 02:16:47;;;;;;;19.35;5.40;;;;;;;;;;5034554;28;20093;-74
2022/10/31 02:19:34;;;;;;;25.45;6.10;;;22.50;47.10;;;;;;5035842;28;20556;-56
2022/10/31 02:22:32;;;;;;;35.40;6.90;;;22.70;56.60;;;;;;5036454;28;20078;-56
2022/10/31 02:25:20;;;;;;;27.73;5.80;;;22.20;34.90;;;;;;5037760;28;20076;-58
2022/10/31 02:28:13;;;;;;;22.95;6.20;;;22.20;35.70;;;;;;5051260;28;20074;-56
2022/10/31 02:30:56;;;;;;;26.80;6.78;;;22.10;35.50;;;;;;5035782;28;20077;-57
2022/10/31 02:33:49;;;;;;;35.53;8.20;;;21.90;35.60;;;;;;5050999;28;20081;-58
2022/10/31 02:36:30;;;;;;;29.00;8.52;;;21.90;35.60;;;;;;5036977;28;20160;-57
2022/10/31 02:39:08;;;;;;;40.72;10.40;;;21.80;35.90;;;;;;5035796;28;20144;-58
2022/10/31 02:41:59;;;;;;;37.30;10.98;;;21.80;36.70;;;;;;5053033;28;20530;-56
2022/10/31 02:44:28;;;;;;;57.25;12.07;;;21.70;36.40;;;;;;5052323;28;20077;-58
2022/10/31 02:47:20;;;;;;;63.78;16.13;;;21.70;37.60;;;;;;5032839;28;20070;-55
2022/10/31 02:50:05;;;;;;;55.28;16.90;;;21.60;36.60;;;;;;5033264;28;20074;-56
2022/10/31 02:52:33;;;;;;;62.05;19.23;;;21.60;36.00;;;;;;5040850;28;20452;-57
2022/10/31 02:55:09;;;;;;;48.15;19.23;;;21.50;35.60;;;;;;5035158;28;20439;-62
2022/10/31 02:57:36;;;;;;;;;;;21.60;35.70;;;;;;5049523;28;20069;-59
2022/10/31 03:00:08;;;;;;;66.07;20.77;;;21.50;35.30;;;;;;5039011;28;20020;-56
2022/10/31 03:03:02;;;;;;;68.32;20.67;;;21.50;36.30;;;;;;5040634;28;20090;-57
2022/10/31 03:05:31;;;;;;;69.78;24.13;;;21.50;36.40;;;;;;5042421;28;20101;-55
2022/10/31 03:08:14;;;;;;;72.90;23.88;;;21.40;35.20;;;;;;5040963;28;20092;-61
2022/10/31 03:10:41;;;;;;;72.68;22.75;;;;;;;;;;5042783;28;20078;-61
2022/10/31 03:13:25;;;;;;;64.38;23.02;;;20.80;35.10;;;;;;5046189;28;20089;-61
2022/10/31 03:15:56;;;;;;;69.38;22.52;;;21.40;36.70;;;;;;5035437;28;20605;-58
2022/10/31 03:18:30;;;;;;;92.05;23.83;;;21.30;37.50;;;;;;5047336;28;20077;-57
2022/10/31 03:21:00;;;;;;;61.08;21.48;;;21.30;36.50;;;;;;5035128;28;20161;-62
2022/10/31 03:23:28;;;;;;;67.80;20.38;;;21.30;36.70;;;;;;5052762;28;20066;-60
2022/10/31 03:25:55;;;;;;;78.30;23.50;;;21.20;37.90;;;;;;5032292;28;20086;-54
2022/10/31 03:28:29;;;;;;;71.70;21.13;;;21.10;36.60;;;;;;5049478;28;20527;-60
2022/10/31 03:30:57;;;;;;;68.75;21.33;;;21.00;36.50;;;;;;5036684;28;20160;-56
2022/10/31 03:33:39;;;;;;;68.28;19.73;;;21.00;37.00;;;;;;5044603;28;20081;-58
2022/10/31 03:36:08;;;;;;;84.25;21.70;;;20.90;36.80;;;;;;5040736;28;20070;-60
2022/10/31 03:38:36;;;;;;;88.88;21.70;;;20.90;37.80;;;;;;5041412;28;20542;-61
2022/10/31 03:41:05;;;;;;;85.30;20.13;;;20.90;37.50;;;;;;5044896;28;20094;-62
2022/10/31 03:43:38;;;;;;;78.03;22.40;;;20.90;37.60;;;;;;5035789;28;20093;-62
2022/10/31 03:46:05;;;;;;;86.20;21.60;;;20.80;38.40;;;;;;5050869;28;20191;-56
2022/10/31 03:48:33;;;;;;;66.13;21.30;;;20.70;38.60;;;;;;5031641;28;20092;-63
2022/10/31 03:51:05;;;;;;;75.78;21.75;;;20.70;38.00;;;;;;5050909;28;20534;-61
2022/10/31 03:53:37;;;;;;;68.90;20.38;;;20.70;37.90;;;;;;5036236;28;20074;-65
2022/10/31 03:56:09;;;;;;;89.72;21.33;;;20.80;38.20;;;;;;5040821;28;20085;-65
2022/10/31 03:58:48;;;;;;;66.78;20.13;;;20.00;56.80;;;;;;5042130;28;20077;-64
2022/10/31 04:01:18;;;;;;;65.38;20.13;;;20.80;37.00;;;;;;5043345;28;20105;-65
2022/10/31 04:03:45;;;;;;;80.15;19.95;;;21.20;38.10;;;;;;5042756;28;20398;-64
2022/10/31 04:06:14;;;;;;;79.32;20.70;;;21.10;53.70;;;;;;5041673;28;20073;-64
2022/10/31 04:08:53;;;;;;;76.82;19.60;;;20.80;62.60;;;;;;5040020;28;20549;-65
2022/10/31 04:11:24;;;;;;;75.60;20.25;;;20.60;53.20;;;;;;5033931;28;20482;-64
2022/10/31 04:13:52;;;;;;;66.88;18.77;;;21.30;46.40;;;;;;5051099;28;20375;-67
2022/10/31 04:16:20;;;;;;;74.47;18.17;;;20.90;64.70;;;;;;5031277;28;20037;-64
2022/10/31 04:18:47;;;;;;;72.30;17.20;;;20.30;46.90;;;;;;5038900;28;20593;-65
2022/10/31 04:21:13;;;;;;;77.53;19.60;;;;;;;;;;5045890;28;20394;-65
2022/10/31 04:23:40;;;;;;;78.63;17.55;;;;;;;;;;5041278;28;20025;-66
2022/10/31 04:26:06;;;;;;;76.30;18.88;;;20.40;38.10;;;;;;5037044;28;20090;-67
2022/10/31 04:28:33;;;;;;;69.97;17.92;;;20.40;38.70;;;;;;5037033;28;20065;-68
2022/10/31 04:31:00;;;;;;;74.05;20.35;;;20.30;38.70;;;;;;5048939;28;20062;-67
2022/10/31 04:33:26;;;;;;;65.25;20.05;;;20.20;38.40;;;;;;5031012;28;20527;-64
2022/10/31 04:35:53;;;;;;;89.63;21.67;;;20.20;38.80;;;;;;5031139;28;20084;-65
2022/10/31 04:38:19;;;;;;;71.18;18.98;;;20.20;39.10;;;;;;5047237;28;20081;-66
2022/10/31 04:40:46;;;;;;;73.90;21.20;;;20.10;40.10;;;;;;5038198;28;20069;-66
2022/10/31 04:43:12;;;;;;;100.43;23.45;;;20.10;41.00;;;;;;5037961;28;20076;-64
2022/10/31 04:45:39;;;;;;;90.10;21.33;;;;;;;;;;5045576;28;20223;-65
2022/10/31 04:48:05;;;;;;;81.57;22.85;;;20.70;70.40;;;;;;5046624;28;20047;-65
2022/10/31 04:50:32;;;;;;;86.05;24.10;;;19.90;55.40;;;;;;5033175;28;20034;-61
2022/10/31 04:52:58;;;;;;;92.82;24.30;;;;;;;;;;5050792;28;20021;-63
2022/10/31 04:55:25;;;;;;;87.75;22.25;;;;;;;;;;5032469;28;20026;-65
2022/10/31 04:57:51;;;;;;;87.40;23.33;;;19.00;44.90;;;;;;5047125;28;20025;-62
2022/10/31 05:00:19;;;;;;;92.43;25.70;;;20.00;52.50;;;;;;5034052;28;20044;-65
2022/10/31 05:02:50;;;;;;;96.30;24.38;;;19.60;45.50;;;;;;5039445;28;20433;-63
2022/10/31 05:05:19;;;;;;;84.97;23.05;;;19.70;49.50;;;;;;5044922;28;20477;-63
2022/10/31 05:07:47;;;;;;;101.45;24.83;;;19.70;40.10;;;;;;5037275;28;20074;-63
2022/10/31 05:10:20;;;;;;;95.18;25.27;;;19.70;87.60;;;;;;5030671;28;20500;-64
2022/10/31 05:12:52;;;;;;;107.53;24.05;;;19.30;53.00;;;;;;5031244;28;20109;-64
2022/10/31 05:15:20;;;;;;;84.50;23.20;;;18.90;62.70;;;;;;5049881;28;20105;-63
2022/10/31 05:17:47;;;;;;;89.93;24.23;;;19.60;42.30;;;;;;5032033;28;20070;-64
2022/10/31 05:20:15;;;;;;;92.65;24.63;;;21.10;45.10;;;;;;5032432;28;20074;-61
2022/10/31 05:22:49;;;;;;;105.88;24.85;;;19.30;73.60;;;;;;5043854;28;20033;-60
2022/10/31 05:25:16;;;;;;;93.53;23.92;;;19.50;47.30;;;;;;5039669;28;20029;-66
2022/10/31 05:27:44;;;;;;;95.28;23.75;;;19.20;46.90;;;;;;5038934;28;20104;-62
2022/10/31 05:30:12;;;;;;;97.97;24.98;;;19.40;43.60;;;;;;5033632;28;20074;-64
2022/10/31 05:32:40;;;;;;;107.88;26.13;;;19.50;67.30;;;;;;5037143;28;20087;-64
2022/10/31 05:35:09;;;;;;;127.78;26.42;;;19.20;43.20;;;;;;5030441;28;20066;-63
2022/10/31 05:37:36;;;;;;;119.18;26.13;;;19.40;51.00;;;;;;5049872;28;20065;-64
2022/10/31 05:40:04;;;;;;;97.25;25.52;;;19.20;44.00;;;;;;5032947;28;20076;-64
2022/10/31 05:42:30;;;;;;;88.82;26.38;;;19.20;43.20;;;;;;5043669;28;20078;-62
2022/10/31 05:44:57;;;;;;;114.90;24.90;;;19.20;42.70;;;;;;5039252;28;20434;-61
2022/10/31 05:47:24;;;;;;;97.78;25.73;;;19.10;69.40;;;;;;5038756;28;20064;-63
2022/10/31 05:49:51;;;;;;;114.10;25.25;;;19.50;61.80;;;;;;5047984;28;20053;-63
2022/10/31 05:52:17;;;;;;;97.13;25.42;;;;;;;;;;5047597;28;20112;-60
2022/10/31 05:54:44;;;;;;;97.00;24.73;;;;;;;;;;5034354;28;20049;-63
2022/10/31 05:57:10;;;;;;;113.63;27.05;;;;;;;;;;5053910;28;20024;-61
2022/10/31 05:59:37;;;;;;;106.50;25.10;;;19.00;43.50;;;;;;5036837;28;20085;-59
2022/10/31 06:02:03;;;;;;;95.22;25.13;;;19.00;46.20;;;;;;5047790;28;20029;-63
2022/10/31 06:04:29;;;;;;;126.47;36.28;;;19.00;43.50;;;;;;5043704;28;20066;-63
2022/10/31 06:06:57;;;;;;;122.45;33.60;;;18.90;42.10;;;;;;5044998;28;20113;-64
2022/10/31 06:09:23;;;;;;;117.45;29.65;;;18.90;41.80;;;;;;5039378;28;20089;-61
2022/10/31 06:11:50;;;;;;;106.05;31.30;;;16.30;48.90;;;;;;5051082;28;20036;-63
2022/10/31 06:14:16;;;;;;;108.07;27.35;;;18.70;59.10;;;;;;5034310;28;20023;-61
2022/10/31 06:16:43;;;;;;;97.05;26.02;;;18.90;44.10;;;;;;5034021;28;20102;-64
2022/10/31 06:19:09;;;;;;;99.18;28.30;;;18.80;43.90;;;;;;5050462;28;20187;-61
2022/10/31 06:21:35;;;;;;;118.85;26.55;;;18.70;44.30;;;;;;5040017;28;20078;-61
2022/10/31 06:24:02;;;;;;;87.97;25.55;;;18.80;43.70;;;;;;5042906;28;20412;-63
2022/10/31 06:26:28;;;;;;;100.15;28.70;;;18.70;44.40;;;;;;5041089;28;20080;-65
2022/10/31 06:28:54;;;;;;;102.47;24.95;;;18.70;44.80;;;;;;5049017;28;20535;-61
2022/10/31 06:31:21;;;;;;;121.75;25.00;;;18.70;41.70;;;;;;5034277;28;20054;-63
2022/10/31 06:33:47;;;;;;;110.10;26.38;;;18.70;42.20;;;;;;5044571;28;20064;-65
2022/10/31 06:36:14;;;;;;;114.35;24.70;;;18.70;42.60;;;;;;5051067;28;20086;-62
2022/10/31 06:38:40;;;;;;;87.90;24.60;;;18.60;41.80;;;;;;5037402;28;20070;-65
2022/10/31 06:41:07;;;;;;;81.07;21.05;;;18.60;42.30;;;;;;5032980;28;20161;-62
2022/10/31 06:43:33;;;;;;;89.05;20.55;;;;;;;;;;5035207;28;20174;-60
2022/10/31 06:46:04;;;;;;;78.25;19.00;;;18.70;41.00;;;;;;5039576;28;20081;-62
2022/10/31 06:48:31;;;;;;;76.53;19.38;;;18.90;60.10;;;;;;5047636;28;20068;-61
2022/10/31 06:51:01;;;;;;;75.28;16.65;;;18.80;41.00;;;;;;5052312;28;20085;-61
2022/10/31 06:53:29;;;;;;;58.53;14.20;;;18.90;40.70;;;;;;5052283;28;20558;-61
2022/10/31 06:55:56;;;;;;;71.18;13.60;;;18.80;66.50;;;;;;5041503;28;20084;-62
2022/10/31 06:58:23;;;;;;;51.03;12.25;;;18.90;40.90;;;;;;5037769;28;20085;-63
2022/10/31 07:00:50;;;;;;;45.10;10.25;;;18.80;40.20;;;;;;5040635;28;20119;-61
2022/10/31 07:03:16;;;;;;;39.92;9.63;;;18.80;40.30;;;;;;5044833;28;20069;-62
2022/10/31 07:05:43;;;;;;;34.95;9.48;;;18.90;40.40;;;;;;5036958;28;20085;-63
2022/10/31 07:08:12;;;;;;;37.60;8.27;;;18.80;40.30;;;;;;5042640;28;20136;-62
2022/10/31 07:10:41;;;;;;;32.88;7.60;;;18.90;40.70;;;;;;5043168;28;20074;-61
2022/10/31 07:13:12;;;;;;;32.10;5.53;;;18.80;40.30;;;;;;5045210;28;20189;-62
2022/10/31 07:15:39;;;;;;;29.50;6.45;;;18.80;40.10;;;;;;5039893;28;20112;-61
2022/10/31 07:18:07;;;;;;;26.45;5.30;;;18.80;39.80;;;;;;5041636;28;20453;-60
2022/10/31 07:20:34;;;;;;;23.48;5.22;;;18.70;39.30;;;;;;5044720;28;20093;-63
2022/10/31 07:23:01;;;;;;;20.20;4.97;;;18.70;39.70;;;;;;5038293;28;20084;-62
2022/10/31 07:25:27;;;;;;;18.77;4.40;;;18.70;39.50;;;;;;5043506;28;20073;-62
2022/10/31 07:27:53;;;;;;;26.95;4.45;;;18.70;39.30;;;;;;5039091;28;20558;-63
2022/10/31 07:30:20;;;;;;;20.23;4.53;;;18.70;39.70;;;;;;5044007;28;20161;-61
2022/10/31 07:32:48;;;;;;;17.77;4.45;;;18.60;39.30;;;;;;5040916;28;20105;-63
2022/10/31 07:35:23;;;;;;;16.95;3.72;;;18.60;39.10;;;;;;5035712;28;20082;-63
2022/10/31 07:37:50;;;;;;;18.52;3.58;;;18.60;38.90;;;;;;5045108;28;20206;-61
2022/10/31 07:40:17;;;;;;;12.85;3.45;;;17.90;40.60;;;;;;5043717;28;20535;-64
2022/10/31 07:42:47;;;;;;;16.17;3.38;;;17.80;65.80;;;;;;5043173;28;20037;-61
2022/10/31 07:45:17;;;;;;;9.77;3.03;;;18.60;81.10;;;;;;5036204;28;20135;-63
2022/10/31 07:47:49;;;;;;;17.77;2.42;;;18.50;49.20;;;;;;5041043;28;20089;-61
2022/10/31 07:50:27;;;;;;;14.07;2.45;;;18.60;37.80;;;;;;5043287;28;20400;-62
2022/10/31 07:53:05;;;;;;;10.88;2.17;;;18.60;34.80;;;;;;5042563;28;20082;-62
2022/10/31 07:55:32;;;;;;;9.63;2.13;;;18.40;62.90;;;;;;5041072;28;20159;-61
2022/10/31 07:58:01;;;;;;;5.88;1.80;;;18.80;34.80;;;;;;5034522;28;20551;-63
2022/10/31 08:00:28;;;;;;;4.30;1.70;;;18.70;33.40;;;;;;5043691;28;20543;-62
2022/10/31 08:03:21;;;;;;;10.57;1.75;;;18.80;33.10;;;;;;5040638;28;20085;-61
2022/10/31 08:05:47;;;;;;;13.02;2.10;;;18.80;32.90;;;;;;5036302;28;20178;-63
2022/10/31 08:08:14;;;;;;;10.32;1.77;;;18.50;50.90;;;;;;5040458;28;20112;-63
2022/10/31 08:10:41;;;;;;;17.92;2.08;;;18.90;32.60;;;;;;5040458;28;20058;-61
2022/10/31 08:13:10;;;;;;;8.23;1.77;;;18.90;33.40;;;;;;5042476;28;20085;-61
2022/10/31 08:15:39;;;;;;;8.30;1.40;;;18.90;33.50;;;;;;5036782;28;20177;-63
2022/10/31 08:18:14;;;;;;;10.23;1.80;;;18.90;33.50;;;;;;5035435;28;20593;-61
2022/10/31 08:20:41;;;;;;;10.95;1.85;;;18.90;33.80;;;;;;5040640;28;20182;-61
2022/10/31 08:23:10;;;;;;;7.88;1.58;;;18.90;33.40;;;;;;5041585;28;20104;-61
2022/10/31 08:25:37;;;;;;;7.30;1.50;;;18.90;33.90;;;;;;5040049;28;20096;-61
2022/10/31 08:28:03;;;;;;;8.20;1.40;;;18.90;34.30;;;;;;5041235;28;20070;-60
2022/10/31 08:30:34;;;;;;;7.65;1.65;;;18.90;34.30;;;;;;5039251;28;20073;-63
2022/10/31 08:33:06;;;;;;;6.88;1.55;;;18.80;33.70;;;;;;5039530;28;20094;-61
2022/10/31 08:35:37;;;;;;;12.73;1.92;;;18.80;34.40;;;;;;5039382;28;20069;-61
2022/10/31 08:38:04;;;;;;;5.65;1.10;;;18.80;33.50;;;;;;5037304;28;20073;-62
2022/10/31 08:40:31;;;;;;;15.35;1.77;;;18.80;33.40;;;;;;5039476;28;20073;-62
2022/10/31 08:43:15;;;;;;;4.78;1.30;;;18.80;32.90;;;;;;5018944;28;20090;-63
2022/10/31 08:45:42;;;;;;;6.95;1.45;;;18.80;32.70;;;;;;5041311;28;20077;-63
2022/10/31 08:48:13;;;;;;;8.70;1.30;;;18.80;32.90;;;;;;5038614;28;20078;-63
2022/10/31 08:50:41;;;;;;;4.75;1.40;;;18.80;34.00;;;;;;5038365;28;20086;-62
2022/10/31 08:53:11;;;;;;;3.05;1.40;;;18.70;34.20;;;;;;5040221;28;20113;-63
2022/10/31 08:55:39;;;;;;;4.90;1.40;;;18.70;34.20;;;;;;5038592;28;20077;-64
2022/10/31 08:58:07;;;;;;;6.13;1.80;;;18.70;34.50;;;;;;5041835;28;20499;-62
2022/10/31 09:00:35;;;;;;;5.45;1.63;;;18.70;34.10;;;;;;5035753;28;20082;-61
2022/10/31 09:03:04;;;;;;;7.72;1.40;;;18.70;34.40;;;;;;5041722;28;20077;-62
2022/10/31 09:05:30;;;;;;;6.22;1.50;;;18.60;34.40;;;;;;5038952;28;20090;-62
2022/10/31 09:07:58;;;;;;;5.82;1.60;;;18.60;33.90;;;;;;5042182;28;20085;-63
2022/10/31 09:10:25;;;;;;;8.05;1.83;;;18.60;34.10;;;;;;5044804;28;20093;-63
2022/10/31 09:12:59;;;;;;;6.03;1.60;;;18.60;34.20;;;;;;5040066;28;20093;-62
2022/10/31 09:15:27;;;;;;;8.75;1.60;;;18.50;33.60;;;;;;5040580;28;20108;-61
2022/10/31 09:17:54;;;;;;;4.57;1.48;;;18.50;33.70;;;;;;5046568;28;20089;-62
2022/10/31 09:20:21;;;;;;;10.20;1.40;;;18.40;34.90;;;;;;5038781;28;20066;-64
2022/10/31 09:22:47;;;;;;;9.85;2.00;;;18.40;34.40;;;;;;5039942;28;20076;-64
2022/10/31 09:25:14;;;;;;;3.13;1.40;;;18.40;34.70;;;;;;5037187;28;20069;-61
2022/10/31 09:27:40;;;;;;;6.28;1.70;;;18.50;35.40;;;;;;5036163;28;20078;-62
2022/10/31 09:30:07;;;;;;;8.02;1.80;;;18.90;34.20;;;;;;5036378;28;20076;-63
2022/10/31 09:32:33;;;;;;;8.65;1.98;;;19.40;34.10;;;;;;5041179;28;20114;-64
2022/10/31 09:35:00;;;;;;;6.15;1.80;;;19.40;33.90;;;;;;5034800;28;20078;-63
2022/10/31 09:37:26;;;;;;;10.52;2.28;;;19.40;34.00;;;;;;5042858;28;20066;-64
2022/10/31 09:39:53;;;;;;;14.35;2.30;;;19.30;34.20;;;;;;5034994;28;20542;-62
2022/10/31 09:42:47;;;;;;;13.25;2.25;;;19.30;34.40;;;;;;5037777;28;20074;-64
2022/10/31 09:45:44;;;;;;;10.75;1.85;;;19.50;34.10;;;;;;5034731;28;20094;-63
2022/10/31 09:48:34;;;;;;;9.00;1.80;;;19.60;33.80;;;;;;5039486;28;20532;-63
2022/10/31 09:51:25;;;;;;;12.30;2.20;;;19.30;33.70;;;;;;5039351;28;20089;-62
2022/10/31 09:54:42;;;;;;;9.98;1.92;;;19.20;34.50;;;;;;5039017;28;20084;-63
2022/10/31 09:57:15;;;;;;;7.78;1.40;;;19.00;33.90;;;;;;5027117;28;20478;-63
2022/10/31 09:59:44;;;;;;;7.70;1.88;;;19.20;34.10;;;;;;5027415;28;20575;-62
2022/10/31 10:02:18;;;;;;;10.48;1.80;;;19.40;33.90;;;;;;5027334;28;20108;-62
2022/10/31 10:04:59;;;;;;;9.38;1.92;;;19.50;33.00;;;;;;5027088;28;20078;-61
2022/10/31 10:07:36;;;;;;;7.45;2.45;;;19.50;33.10;;;;;;5026059;28;20539;-62
2022/10/31 10:10:18;;;;;;;10.88;2.50;;;19.50;33.60;;;;;;5028121;28;20082;-61
2022/10/31 10:13:08;;;;;;;4.88;1.63;;;19.50;34.30;;;;;;5011946;28;20101;-61
2022/10/31 10:15:59;;;;;;;11.10;1.95;;;19.40;34.10;;;;;;5026687;28;20145;-62
2022/10/31 10:18:54;;;;;;;6.55;2.45;;;19.20;33.90;;;;;;5027110;28;20074;-62
2022/10/31 10:21:30;;;;;;;10.88;2.70;;;18.90;33.00;;;;;;5026113;28;20230;-62
2022/10/31 10:24:17;;;;;;;12.10;2.33;;;18.80;34.20;;;;;;5027719;28;20070;-61
2022/10/31 10:26:45;;;;;;;;;;;18.80;33.70;;;;;;5027532;28;20104;-64
2022/10/31 10:29:24;;;;;;;18.75;3.30;;;18.90;34.10;;;;;;5027108;28;20033;-62
2022/10/31 10:31:53;;;;;;;12.55;2.50;;;19.00;34.20;;;;;;5028188;28;21396;-63
2022/10/31 10:34:36;;;;;;;12.35;2.80;;;19.10;34.60;;;;;;5045066;28;20072;-63
2022/10/31 10:37:20;;;;;;;9.30;2.10;;;19.20;34.20;;;;;;5034846;28;20455;-62
2022/10/31 10:39:52;;;;;;;8.70;2.30;;;19.30;34.00;;;;;;5044342;28;20085;-62
2022/10/31 10:48:24;;;;;;;14.43;2.92;;;19.30;33.90;;;;;;5039671;28;20088;-61
2022/10/31 10:50:52;;;;;;;7.97;2.13;;;19.20;34.50;;;;;;5043314;28;20164;-63
2022/10/31 10:53:37;;;;;;;7.70;2.05;;;19.00;34.30;;;;;;5046135;28;20081;-62
2022/10/31 10:56:11;;;;;;;10.90;2.22;;;19.10;34.50;;;;;;5040733;28;20101;-61
2022/10/31 10:58:42;;;;;;;6.53;2.17;;;18.80;35.00;;;;;;5048989;28;20411;-62
2022/10/31 11:01:15;;;;;;;10.50;2.30;;;18.50;34.60;;;;;;5043963;28;20075;-64
2022/10/31 11:03:42;;;;;;;11.10;2.53;;;18.40;35.00;;;;;;5038626;28;20113;-62
2022/10/31 11:06:21;;;;;;;13.32;2.60;;;18.50;34.80;;;;;;5039513;28;20074;-63
2022/10/31 11:08:49;;;;;;;10.32;2.15;;;18.50;35.10;;;;;;5039932;28;20143;-64
2022/10/31 11:11:22;;;;;;;12.77;2.47;;;18.50;36.20;;;;;;5041832;28;20098;-64
2022/10/31 11:13:52;;;;;;;10.07;2.30;;;18.40;36.50;;;;;;5040320;28;20089;-62
2022/10/31 11:16:37;;;;;;;12.05;1.95;;;18.30;36.50;;;;;;5039385;28;20137;-62
2022/10/31 11:19:15;;;;;;;6.78;1.85;;;18.20;36.50;;;;;;5043291;28;20078;-61
2022/10/31 11:21:44;;;;;;;7.35;1.80;;;18.10;37.70;;;;;;5043085;28;20093;-62
2022/10/31 11:24:10;;;;;;;4.28;2.00;;;17.90;38.40;;;;;;5049638;28;20181;-64
2022/10/31 11:26:37;;;;;;;;;;;18.00;37.80;;;;;;5047071;28;20550;-62
2022/10/31 11:29:05;;;;;;;11.55;2.10;;;17.90;37.90;;;;;;5045544;28;19965;-65
2022/10/31 11:31:34;;;;;;;9.25;2.08;;;17.90;38.00;;;;;;5041764;28;20074;-63
2022/10/31 11:34:04;;;;;;;10.80;2.58;;;18.00;38.60;;;;;;5045189;28;20480;-61
2022/10/31 11:36:37;;;;;;;8.90;2.00;;;18.00;38.40;;;;;;5038915;28;20516;-62
2022/10/31 11:39:13;;;;;;;8.65;1.95;;;18.00;38.30;;;;;;5041950;28;20180;-62
2022/10/31 11:41:43;;;;;;;10.10;1.98;;;18.00;37.70;;;;;;5038491;28;20433;-63
2022/10/31 11:44:26;;;;;;;8.77;2.03;;;18.00;38.30;;;;;;5039580;28;20098;-62
2022/10/31 11:46:58;;;;;;;8.82;2.00;;;17.90;39.30;;;;;;5043815;28;20178;-62
2022/10/31 11:49:37;;;;;;;21.65;2.15;;;17.80;39.70;;;;;;5040673;28;20200;-63
2022/10/31 11:52:20;;;;;;;13.65;2.85;;;17.80;38.40;;;;;;5044260;28;20090;-64
2022/10/31 11:54:58;;;;;;;12.70;2.20;;;17.60;40.80;;;;;;5046645;28;20081;-62
2022/10/31 11:57:42;;;;;;;9.43;2.03;;;17.70;40.30;;;;;;5039729;28;20608;-62
2022/10/31 12:00:36;;;;;;;13.00;1.80;;;17.70;40.10;;;;;;5042129;28;20114;-65
2022/10/31 12:03:17;;;;;;;7.05;1.80;;;17.60;40.40;;;;;;5043006;28;20080;-63
2022/10/31 12:05:47;;;;;;;19.20;2.25;;;17.60;40.60;;;;;;5043473;28;20094;-61
2022/10/31 12:08:14;;;;;;;9.63;2.20;;;17.40;40.40;;;;;;5043962;28;20153;-62
2022/10/31 12:11:19;;;;;;;7.43;2.25;;;17.30;40.40;;;;;;5038173;28;20494;-64
2022/10/31 12:13:57;;;;;;;13.88;2.20;;;17.30;41.30;;;;;;5038925;28;20487;-63
2022/10/31 12:16:51;;;;;;;15.98;2.75;;;17.30;41.30;;;;;;5039954;28;20581;-62
2022/10/31 12:19:29;;;;;;;12.88;2.42;;;17.10;41.60;;;;;;5040639;28;20195;-64
2022/10/31 12:22:05;;;;;;;11.90;2.28;;;17.10;41.70;;;;;;5039951;28;20561;-61
2022/10/31 12:24:52;;;;;;;11.52;1.75;;;17.10;42.20;;;;;;5043739;28;20419;-62
2022/10/31 12:27:28;;;;;;;13.15;2.15;;;17.10;41.80;;;;;;5042184;28;20156;-62
2022/10/31 12:30:15;;;;;;;8.02;1.88;;;17.10;42.00;;;;;;5041035;28;20089;-64
2022/10/31 12:33:13;;;;;;;7.50;1.70;;;17.10;42.10;;;;;;5038006;28;20144;-64
2022/10/31 12:36:11;;;;;;;12.48;1.80;;;16.80;43.10;;;;;;5040126;28;20497;-63
2022/10/31 12:38:40;;;;;;;21.98;3.00;;;16.70;42.90;;;;;;5023319;28;20090;-64
2022/10/31 12:41:16;;;;;;;13.57;2.05;;;16.40;42.60;;;;;;5033748;28;20113;-62
2022/10/31 12:44:04;;;;;;;9.13;2.10;;;16.50;42.30;;;;;;5037097;28;20080;-62
2022/10/31 12:46:58;;;;;;;8.63;2.10;;;16.60;42.70;;;;;;5041278;28;20439;-61
2022/10/31 12:50:06;;;;;;;18.80;2.80;;;16.60;43.70;;;;;;5044573;28;20081;-63
2022/10/31 12:52:58;;;;;;;12.97;2.13;;;16.70;43.60;;;;;;5044493;28;20096;-64
2022/10/31 12:55:56;;;;;;;15.40;2.40;;;16.50;44.70;;;;;;5039069;28;20139;-63
2022/10/31 12:58:35;;;;;;;16.13;2.53;;;16.30;44.60;;;;;;5040756;28;20077;-63
2022/10/31 13:01:17;;;;;;;22.05;2.53;;;16.30;44.70;;;;;;5034856;28;20123;-62
2022/10/31 13:03:53;;;;;;;23.20;3.60;;;16.20;44.90;;;;;;5036092;28;20089;-64
2022/10/31 13:06:22;;;;;;;;;;;16.40;45.00;;;;;;5038744;28;20068;-63
2022/10/31 13:08:54;;;;;;;17.15;5.32;;;16.10;44.80;;;;;;5039793;28;20410;-65
2022/10/31 13:11:28;;;;;;;23.15;5.70;;;15.90;45.10;;;;;;5039016;28;20090;-61